Terminal Aerodrome Forecast
Issued by NWS Knoxville/Tri Cities, TN

Home | Current Version | Previous Version | Text Only | Print | Product List | Glossary On
Versions: 1 2 3 4 5 6 7 8 9 10 11 12 13 14 15 16 17 18 19 20 21 22 23 24 25 26
000
FTUS44 KMRX 282320
TAFTRI
TAF
KTRI 282320Z 2900/2924 VRB03KT P6SM VCSH SCT050 BKN100
     FM290600 00000KT 4SM BR BKN100
     FM290900 00000KT 3SM BR SCT003
      TEMPO 2910/2912 2SM BR BKN003
     FM291300 VRB03KT P6SM SCT030
     FM292100 36009KT P6SM VCTS BKN040CB=

USA.gov is the U.S. government's official web portal to all federal, state and local government web resources and services.